Masz pytanie?

GDDKiA Wrocław :: Generalna Dyrekcja Dróg Krajowych i...

Znajdują się Państwo na stronie GDDKiA.gov.pl. Poniżej prezentujemy instrukcję instalacji darmowego czytnika ekranu wykorzystującego syntezator oparty na...www.gddkia.gov.pl/pl/54/gddkia-wroclaw

gddkia.gov.pl - Serwis informacyjny

Znajdują się Państwo na stronie GDDKiA.gov.pl. Poniżej prezentujemy instrukcję instalacji darmowego czytnika ekranu wykorzystującego syntezator oparty na...www.gddkia.gov.pl/

Sytuacja pogodowa na drogach Polski - TRAX elektronik

GDDKiA dane z 2016-12-02 15:13 Na mapie Wartości w okienkachwww.traxelektronik.pl/pogoda/drogi/index.php

Kamery na drogach Polski - TRAX elektronik

Menu 2: Menu2a: Menu 3www.traxelektronik.pl/pogoda/kamery/index.php

GDDKiA: A1 Piotrków-Częstochowa będzie miała po trzy pasy

Skierowana ostatnio do realizacji autostrada A1 Tuszyn-Częstochowa, między Piotrkowem Trybunalskim a Częstochową będzie miała po trzy pasy ruchu – wynika z...lodz.onet.pl/gddkia-a1-piotrkow-czestochowa-bedzie-miala-po-trzy-pasy/1nesm6

Cała polska hotele, wczasy, noclegi, czartery, Turystyka w...

Turystyczna Mapa Polski zawiera bazę w której zawarte są: Hotele, Pensjonaty, Ośrodki, Domki, Agroturystyka, Sanatoria, Tanie Noclegiwww.oit.pl/

Pogoda we Wrocławiu - InfoMeteo.pl

Depesza METAR lotniska Wrocław-Strachowice METAR = EPWR 011400Z 28020KT 9999 -RA BKN009 04/03 Q1010 R11/290095 STACJA..... EPWR - Wrocław …wroclaw.infometeo.pl/